Hlavní strana
METAR-TAF:

METAR-TAF

Letiště :

Hagåtña, Guam, Spojené státy americké

zeměpisná šířka: 13-29N, zeměpisná délka: 144-48E, výška: 91 m

Aktuální stav počasí

Zpráva byla vytvořena před 27 minutami, v 23:54 UTC
Východoseverovýchodní vítr 14 kt
Teplota 30°C
Vlhkost vzduchu 66%
Tlak 1013 hPa
Viditelnost: 16.1 km
Skoro jasno ve výšce 2800 ft

METAR: PGUM 172354Z 07014KT 10SM FEW028 30/23 A2992 RMK AO2 SLP123 60000 T03000228 10300 20261 50010

Čas: 10:21 (00:21 UTC)

Předpověď počasí

Zpráva byla vytvořena před 56 minutami, v 23:25 UTC
Předpověď platná od 18 v 00 UTC do 19 v 06 UTC
Východní vítr 18 kt
Viditelnost: 10 km
Polojasno ve výšce 2400 ft
Polojasno ve výšce 4000 ft
Od 18 v 0900 UTC
Východoseverovýchodní vítr 11 kt
Viditelnost: 10 km
Polojasno ve výšce 2000 ft

TAF: PGUM 172325Z 1800/1906 08018KT P6SM SCT024 SCT040 FM180900 07011KT P6SM SCT020

Stav a předpovědi počasí z více než 4 000 letišť (zprávy METAR a TAF).

Červené a žluté tečky na mapě představují dostupné meteorologické stanice.

Když kurzor umístíte na tečku, zobrazí se název stanice.

Pak kliknutím zobrazíte stav a předpověď počasí.

Chcete-li změnit mapu, kliknutím na zelené tlačítko se znaménkem +mapu přiblížíte, kliknutím na zelené tlačítko se znaménkem – mapu oddálíte a kliknutím na zelené šipky přejdete na sousední mapy.


METAR-TAF: